Airfield :
LOGIN :

Register | Disclaimer

   EN    FR    IT 

 










Legend :    VFR   Marginal VFR   IFR   Intensive IFR   Very Intensive IFR
Visi :
Ceiling :
>= 8 km
>= 3000ft
5 to 8 km
1000 to 3000 ft
1500m to 5 km
500 to 1000 ft
800 to 1500m
200 to 500 ft
< 800m
< 200 ft
Symbols :   Thunderstorms  Fog  Heavy snow  Heavy precipitations  Wind > 20 kt
SIGMETs :     Misc.  Thunderstorms  Icing  Turbulence  Mountain Waves  Volcanic Ashes






- Airport Elevation : 55 ft
- IATA code : PYR


LGAD - Andravida

CURRENT METAR :
  • 260450Z 36006KT 9999 SCT025 BKN080 20/15 Q1012

EXPIRED METARs :
  • 260420Z 34003KT 9999 SCT025 BKN080 19/15 Q1012
  • 260350Z VRB03KT 9999 SCT025 BKN080 18/15 Q1012
  • 260320Z 33004KT 9999 SCT025 BKN080 18/15 Q1012
  • 260250Z 33004KT 9999 SCT025 BKN080 18/15 Q1012
  • 260220Z 32005KT 9999 SCT025 BKN080 18/16 Q1012
  • 260150Z 00000KT 9999 SCT025 BKN080 17/16 Q1012
  • 260120Z VRB03KT 9999 SCT025 BKN080 17/16 Q1012
  • 260050Z VRB03KT 9999 SCT025 BKN080 17/15 Q1012
  • 260020Z VRB03KT 9999 SCT025 BKN080 18/15 Q1012
  • 252350Z 35004KT 9999 SCT025 BKN080 18/15 Q1013

TAF TAF LGAD
Valid from the 26 at 03:00 until the 26 at 12:00 UTC


260200Z 2603/2612 VRB03KT 9999 SCT025 SCT080
PROB30
TEMPO 2603/2606 4000 SHRA FEW018CB SCT020 BKN080



MET'MAP, your aeronautical weather chart ! - Copyright ORBIFLY December 2007 - Disclaimer

ORBIFLY MET'MAP TEAM :

Programming & Development : Alexandra Zaïnal
Original concept : Baudouin d'Aumeries
Technical & hardware support : Manuel Goepfert
Assistance : Marc-Olivier Méhu




SOURCES & CREDITS :

   NOAA